Time;durP1;ratioP1;P1;durP2;ratioP2;P2;SDS_P1;SDS_P2;PMS_P1;PMS_P2;Temp;Humidity;BMP_temperature;BMP_pressure;BME280_temperature;BME280_humidity;BME280_pressure;Samples;Min_cycle;Max_cycle;Signal;HPM_P1;HPM_P2
2022/04/03 00:01:19;;;;;;;8.88;7.28;;;;;;;3.25;89.33;98177.50;4104985;28;20208;-91
2022/04/03 00:03:24;;;;;;;8.93;7.05;;;;;;;3.24;89.58;98181.84;4091632;28;20205;-90
2022/04/03 00:05:28;;;;;;;10.80;8.63;;;;;;;3.22;89.19;98185.34;4106356;28;20517;-91
2022/04/03 00:07:31;;;;;;;9.52;7.50;;;;;;;3.23;88.89;98180.16;4087376;28;20198;-91
2022/04/03 00:09:35;;;;;;;10.43;7.85;;;;;;;3.21;88.68;98181.13;4104270;28;20209;-91
2022/04/03 00:11:38;;;;;;;9.93;7.40;;;;;;;3.20;89.01;98185.41;4102808;28;20273;-91
2022/04/03 00:13:42;;;;;;;9.88;8.30;;;;;;;3.18;89.38;98179.50;4090382;28;20213;-91
2022/04/03 00:15:45;;;;;;;11.00;8.10;;;;;;;3.20;89.40;98179.44;4096014;28;20221;-91
2022/04/03 00:17:49;;;;;;;11.27;8.32;;;;;;;3.17;88.89;98179.56;4102293;28;20217;-91
2022/04/03 00:19:54;;;;;;;11.02;8.40;;;;;;;3.16;89.22;98185.59;4087161;29;20202;-91
2022/04/03 00:22:01;;;;;;;10.68;8.55;;;;;;;3.14;88.96;98179.66;4123282;28;20223;-91
2022/04/03 00:24:04;;;;;;;10.35;8.20;;;;;;;3.11;88.36;98174.63;4119644;28;20204;-91
2022/04/03 00:26:08;;;;;;;9.38;7.85;;;;;;;3.09;89.09;98179.84;4090556;28;20233;-91
2022/04/03 00:28:11;;;;;;;8.23;7.22;;;;;;;3.11;88.97;98177.19;4104783;28;20221;-90
2022/04/03 00:30:16;;;;;;;10.40;8.52;;;;;;;3.14;89.04;98179.66;4092124;28;20301;-91
2022/04/03 00:32:19;;;;;;;9.85;7.63;;;;;;;3.16;88.85;98180.44;4102259;28;20206;-91
2022/04/03 00:34:23;;;;;;;11.45;8.65;;;;;;;3.15;88.56;98181.34;4105427;28;20234;-91
2022/04/03 00:36:27;;;;;;;10.60;7.70;;;;;;;3.15;88.70;98191.66;4094291;28;20217;-91
2022/04/03 00:38:31;;;;;;;9.23;7.68;;;;;;;3.08;88.09;98185.03;4118418;28;20208;-91
2022/04/03 00:40:35;;;;;;;9.82;8.35;;;;;;;3.01;88.72;98193.91;4119478;28;20255;-91
2022/04/03 00:42:38;;;;;;;10.65;8.23;;;;;;;3.00;89.13;98189.66;4090463;28;20618;-91
2022/04/03 00:44:42;;;;;;;10.88;8.32;;;;;;;2.97;89.21;98192.34;4102533;28;20738;-91
2022/04/03 00:46:46;;;;;;;9.75;7.60;;;;;;;2.93;89.10;98183.03;4090344;28;20321;-91
2022/04/03 00:48:50;;;;;;;10.30;8.18;;;;;;;2.90;89.39;98191.75;4090303;28;20253;-91
2022/04/03 00:50:54;;;;;;;10.23;9.00;;;;;;;2.86;89.78;98197.06;4119511;28;20212;-91
2022/04/03 00:52:58;;;;;;;10.57;7.57;;;;;;;2.85;89.70;98193.63;4097007;28;20206;-91
2022/04/03 00:55:03;;;;;;;10.77;8.20;;;;;;;2.86;89.92;98189.34;4102862;28;20233;-91
2022/04/03 00:57:08;;;;;;;9.98;8.60;;;;;;;2.84;90.48;98189.38;4105196;28;21216;-91
2022/04/03 00:59:12;;;;;;;11.73;9.30;;;;;;;2.86;90.25;98189.34;4107941;28;20209;-91
2022/04/03 01:01:16;;;;;;;14.35;9.70;;;;;;;2.88;90.31;98197.81;4088272;28;20226;-91
2022/04/03 01:03:19;;;;;;;11.40;8.90;;;;;;;2.88;90.55;98192.69;4102249;28;20675;-91
2022/04/03 01:05:23;;;;;;;12.23;9.20;;;;;;;2.88;90.17;98190.09;4105290;28;20205;-90
2022/04/03 01:07:26;;;;;;;10.63;8.48;;;;;;;2.87;90.05;98191.00;4089279;28;20240;-91
2022/04/03 01:09:31;;;;;;;11.10;8.90;;;;;;;2.86;90.72;98192.72;4088685;28;20213;-90
2022/04/03 01:11:35;;;;;;;11.10;7.50;;;;;;;2.85;90.29;98192.78;4077247;28;20216;-90
2022/04/03 01:13:45;;;;;;;9.70;7.28;;;;;;;2.86;90.37;98194.47;4089509;28;20217;-90
2022/04/03 01:15:52;;;;;;;10.30;8.85;;;;;;;2.85;89.93;98195.38;4086223;28;20700;-90
2022/04/03 01:17:57;;;;;;;10.38;8.23;;;;;;;2.81;90.47;98201.50;4086412;28;20221;-87
2022/04/03 01:20:00;;;;;;;10.48;8.07;;;;;;;2.79;90.38;98193.84;4092398;28;20204;-90
2022/04/03 01:22:04;;;;;;;10.93;8.35;;;;;;;2.80;90.76;98200.69;4095482;28;20208;-89
2022/04/03 01:24:17;;;;;;;11.43;8.40;;;;;;;2.81;90.31;98199.78;4093294;28;20217;-90
2022/04/03 01:26:22;;;;;;;9.60;7.80;;;;;;;2.81;90.29;98199.78;4102202;28;20276;-89
2022/04/03 01:28:25;;;;;;;11.15;8.13;;;;;;;2.78;90.38;98191.31;4091378;28;20211;-90
2022/04/03 01:30:29;;;;;;;11.57;8.10;;;;;;;2.79;90.83;98203.31;4090239;28;20214;-89
2022/04/03 01:32:33;;;;;;;9.63;8.18;;;;;;;2.79;90.55;98202.47;4088102;29;20205;-90
2022/04/03 01:34:36;;;;;;;8.45;7.53;;;;;;;2.75;90.06;98199.16;4124811;28;20255;-90
2022/04/03 01:36:39;;;;;;;9.90;7.70;;;;;;;2.74;89.94;98205.22;4080441;29;20217;-90
2022/04/03 01:38:42;;;;;;;9.25;8.02;;;;;;;2.71;89.99;98213.06;4115796;28;20276;-90
2022/04/03 01:40:46;;;;;;;9.60;8.15;;;;;;;2.70;90.49;98213.94;4086654;29;20214;-89
2022/04/03 01:42:51;;;;;;;11.38;8.50;;;;;;;2.70;90.16;98206.22;4125445;28;20212;-90
2022/04/03 01:44:54;;;;;;;9.85;7.93;;;;;;;2.70;90.51;98208.78;4106540;28;20292;-90
2022/04/03 01:46:57;;;;;;;10.68;7.90;;;;;;;2.70;90.73;98213.94;4121766;28;20229;-91
2022/04/03 01:49:01;;;;;;;11.35;7.85;;;;;;;2.69;90.26;98217.41;4087132;28;20234;-90
2022/04/03 01:51:04;;;;;;;9.30;7.78;;;;;;;2.71;90.82;98214.78;4087458;28;21310;-90
2022/04/03 01:53:07;;;;;;;9.70;7.78;;;;;;;2.69;90.05;98213.97;4074241;29;20621;-90
2022/04/03 01:55:11;;;;;;;10.73;8.73;;;;;;;2.71;90.42;98207.91;4086515;28;20251;-91
2022/04/03 01:57:14;;;;;;;13.30;8.77;;;;;;;2.71;90.37;98214.78;4107570;28;20217;-90
2022/04/03 01:59:18;;;;;;;12.93;9.00;;;;;;;2.76;90.32;98208.56;4085189;28;20243;-90
2022/04/03 02:01:22;;;;;;;13.05;9.20;;;;;;;2.75;90.28;98216.34;4102450;28;20214;-90
2022/04/03 02:03:26;;;;;;;13.18;8.93;;;;;;;2.71;90.62;98212.22;4090796;28;20229;-90
2022/04/03 02:05:30;;;;;;;10.30;8.15;;;;;;;2.75;90.75;98212.03;4091323;28;20705;-88
2022/04/03 02:07:33;;;;;;;10.13;8.05;;;;;;;2.75;90.06;98214.59;4102662;28;20217;-88
2022/04/03 02:09:37;;;;;;;10.43;8.05;;;;;;;2.70;90.35;98216.50;4096011;28;20245;-91
2022/04/03 02:11:40;;;;;;;10.57;8.57;;;;;;;2.67;90.67;98219.19;4087014;28;20321;-90
2022/04/03 02:13:43;;;;;;;10.13;8.65;;;;;;;2.65;90.56;98217.59;4105343;28;20221;-90
2022/04/03 02:15:49;;;;;;;11.32;9.18;;;;;;;2.59;90.68;98215.22;4124377;28;20644;-90
2022/04/03 02:17:52;;;;;;;9.95;8.07;;;;;;;2.59;90.33;98221.19;4105427;28;20272;-90
2022/04/03 02:19:56;;;;;;;9.18;8.00;;;;;;;2.58;90.03;98221.25;4088915;28;20600;-90
2022/04/03 02:21:59;;;;;;;13.10;8.75;;;;;;;2.55;90.03;98219.63;4086464;29;20221;-90
2022/04/03 02:24:02;;;;;;;12.20;7.93;;;;;;;2.54;90.17;98217.09;4100256;28;20261;-90
2022/04/03 02:26:06;;;;;;;10.40;8.57;;;;;;;2.55;90.65;98223.94;4099928;28;20200;-90
2022/04/03 02:28:10;;;;;;;10.82;8.88;;;;;;;2.50;90.59;98216.38;4123206;28;20228;-90
2022/04/03 02:30:14;;;;;;;12.57;8.88;;;;;;;2.49;90.50;98217.25;4086131;29;20229;-90
2022/04/03 02:32:21;;;;;;;12.93;8.82;;;;;;;2.51;90.66;98224.91;4106763;28;20213;-90
2022/04/03 02:34:24;;;;;;;13.63;8.73;;;;;;;2.53;90.84;98224.00;4088910;28;20228;-90
2022/04/03 02:36:27;;;;;;;12.18;8.60;;;;;;;2.54;90.59;98225.69;4090227;28;20589;-90
2022/04/03 02:38:30;;;;;;;12.45;9.13;;;;;;;2.54;90.76;98220.53;4105588;28;20300;-90
2022/04/03 02:40:34;;;;;;;11.90;9.65;;;;;;;2.59;90.48;98217.78;4078789;29;20209;-90
2022/04/03 02:42:38;;;;;;;12.48;8.80;;;;;;;2.60;90.33;98227.19;4087880;28;20671;-90
2022/04/03 02:44:41;;;;;;;10.35;8.30;;;;;;;2.66;90.71;98230.41;4091533;28;20320;-91
2022/04/03 02:46:45;;;;;;;11.75;9.25;;;;;;;2.67;90.19;98226.91;4089647;28;20217;-90
2022/04/03 02:48:49;;;;;;;13.65;9.30;;;;;;;2.64;90.20;98221.88;4089706;28;20232;-90
2022/04/03 02:50:53;;;;;;;10.70;7.97;;;;;;;2.65;90.14;98226.13;4119775;28;20662;-90
2022/04/03 02:52:57;;;;;;;12.95;9.32;;;;;;;2.61;90.53;98228.88;4122533;28;20692;-90
2022/04/03 02:55:00;;;;;;;13.23;9.43;;;;;;;2.58;89.87;98229.81;4119423;28;20297;-90
2022/04/03 02:57:04;;;;;;;12.88;9.65;;;;;;;2.55;90.33;98231.66;4091860;28;20237;-90
2022/04/03 02:59:07;;;;;;;11.82;9.90;;;;;;;2.52;90.17;98232.59;4091322;28;20206;-90
2022/04/03 03:01:10;;;;;;;12.43;10.23;;;;;;;2.51;89.98;98238.66;4102486;28;20208;-90
2022/04/03 03:03:14;;;;;;;12.30;10.23;;;;;;;2.52;90.20;98239.47;4102401;28;20237;-90
2022/04/03 03:05:19;;;;;;;10.68;9.02;;;;;;;2.52;90.64;98230.00;4104656;28;20233;-90
2022/04/03 03:07:23;;;;;;;14.57;9.07;;;;;;;2.54;90.75;98232.53;4104483;28;20287;-90
2022/04/03 03:09:26;;;;;;;12.20;9.00;;;;;;;2.53;90.19;98234.28;4108559;28;20710;-90
2022/04/03 03:11:30;;;;;;;13.23;9.80;;;;;;;2.53;90.63;98242.00;4094555;28;20206;-90
2022/04/03 03:13:33;;;;;;;12.32;9.15;;;;;;;2.58;90.82;98237.53;4112094;28;20235;-90
2022/04/03 03:15:36;;;;;;;14.43;10.15;;;;;;;2.61;90.27;98241.75;4093557;28;20296;-90
2022/04/03 03:17:40;;;;;;;12.48;9.90;;;;;;;2.61;90.79;98241.75;4125449;28;20235;-90
2022/04/03 03:19:43;;;;;;;14.13;9.93;;;;;;;2.63;90.57;98239.94;4086564;29;20293;-90
2022/04/03 03:21:48;;;;;;;12.68;10.35;;;;;;;2.61;90.35;98236.59;4086553;28;20206;-89
2022/04/03 03:23:51;;;;;;;12.50;8.85;;;;;;;2.64;90.60;98237.31;4092646;28;20301;-90
2022/04/03 03:25:54;;;;;;;13.80;9.77;;;;;;;2.68;90.80;98236.31;4091804;28;20308;-90
2022/04/03 03:27:58;;;;;;;11.90;9.02;;;;;;;2.70;90.29;98242.25;4089147;28;20588;-90
2022/04/03 03:30:01;;;;;;;11.20;9.15;;;;;;;2.71;90.08;98238.78;4111732;28;20213;-90
2022/04/03 03:32:05;;;;;;;10.68;9.10;;;;;;;2.72;89.97;98240.47;4109744;28;20208;-90
2022/04/03 03:34:09;;;;;;;14.43;10.45;;;;;;;2.72;90.48;98234.47;4108452;28;20269;-90
2022/04/03 03:36:12;;;;;;;12.20;9.68;;;;;;;2.69;90.38;98243.16;4108622;28;20221;-90
2022/04/03 03:38:17;;;;;;;13.57;9.30;;;;;;;2.72;90.55;98247.34;4115428;28;20243;-90
2022/04/03 03:40:20;;;;;;;11.80;9.00;;;;;;;2.70;90.37;98233.69;4096109;28;20225;-90
2022/04/03 03:42:30;;;;;;;12.20;9.68;;;;;;;2.67;90.36;98244.94;4091070;28;20241;-90
2022/04/03 03:44:34;;;;;;;13.57;9.95;;;;;;;2.63;90.54;98240.81;4089947;28;20482;-90
2022/04/03 03:46:38;;;;;;;10.98;8.80;;;;;;;2.64;90.43;98236.47;4087679;29;20208;-90
2022/04/03 03:48:42;;;;;;;12.32;9.43;;;;;;;2.65;90.26;98241.56;4100572;28;20273;-90
2022/04/03 03:50:45;;;;;;;13.98;9.75;;;;;;;2.62;90.55;98241.69;4118944;28;20720;-90
2022/04/03 03:52:48;;;;;;;10.07;8.68;;;;;;;2.67;90.44;98244.94;4108554;28;20201;-90
2022/04/03 03:54:53;;;;;;;12.07;9.68;;;;;;;2.65;90.11;98251.88;4092885;28;20218;-90
2022/04/03 03:56:56;;;;;;;12.15;8.93;;;;;;;2.66;90.12;98245.84;4093002;28;20224;-90
2022/04/03 03:59:00;;;;;;;12.10;9.35;;;;;;;2.65;90.08;98249.28;4104074;28;20213;-90
2022/04/03 04:01:03;;;;;;;10.88;9.10;;;;;;;2.63;90.34;98252.81;4119207;28;20331;-89
2022/04/03 04:03:06;;;;;;;12.27;9.23;;;;;;;2.62;90.29;98246.84;4088325;28;20243;-90
2022/04/03 04:05:10;;;;;;;13.60;9.27;;;;;;;2.68;90.55;98262.06;4106934;28;20205;-90
2022/04/03 04:07:13;;;;;;;12.90;9.75;;;;;;;2.72;90.10;98263.66;4089272;28;20303;-89
2022/04/03 04:09:17;;;;;;;14.77;10.15;;;;;;;2.73;90.53;98260.16;4087100;28;20304;-90
2022/04/03 04:11:22;;;;;;;11.75;9.30;;;;;;;2.77;89.82;98260.88;4105119;28;20204;-90
2022/04/03 04:13:25;;;;;;;11.40;9.20;;;;;;;2.79;90.12;98266.84;4086663;28;20218;-90
2022/04/03 04:15:30;;;;;;;12.10;9.45;;;;;;;2.79;90.34;98265.94;4097244;28;20205;-90
2022/04/03 04:17:36;;;;;;;11.82;9.25;;;;;;;2.80;89.69;98272.75;4086584;29;20234;-90
2022/04/03 04:19:39;;;;;;;13.23;9.90;;;;;;;2.82;90.18;98258.09;4091486;29;20613;-90
2022/04/03 04:21:43;;;;;;;10.43;8.32;;;;;;;2.84;89.48;98273.50;4074004;28;20234;-90
2022/04/03 04:23:46;;;;;;;14.25;9.60;;;;;;;2.85;90.12;98264.88;4081946;28;20210;-90
2022/04/03 04:25:49;;;;;;;11.43;8.45;;;;;;;2.88;89.63;98275.06;4070955;29;20262;-90
2022/04/03 04:27:54;;;;;;;12.27;9.35;;;;;;;2.85;89.67;98276.00;4082665;28;20207;-90
2022/04/03 04:29:58;;;;;;;13.95;9.38;;;;;;;2.87;89.21;98278.53;4104065;28;20284;-90
2022/04/03 04:32:01;;;;;;;11.60;9.13;;;;;;;2.87;88.60;98274.25;4087471;28;20208;-90
2022/04/03 04:34:04;;;;;;;11.30;9.60;;;;;;;2.89;88.86;98287.06;4082589;28;20337;-90
2022/04/03 04:36:07;;;;;;;11.23;9.10;;;;;;;2.88;89.15;98287.94;4091340;28;20210;-90
2022/04/03 04:38:11;;;;;;;12.30;9.00;;;;;;;2.84;89.37;98278.63;4119071;28;20211;-90
2022/04/03 04:40:14;;;;;;;13.07;9.73;;;;;;;2.80;89.65;98288.22;4086889;28;20302;-90
2022/04/03 04:42:18;;;;;;;12.73;10.18;;;;;;;2.79;89.39;98283.94;4085583;28;20843;-90
2022/04/03 04:44:22;;;;;;;12.68;9.35;;;;;;;2.76;89.27;98290.94;4099575;28;20873;-90
2022/04/03 04:46:25;;;;;;;13.25;10.00;;;;;;;2.73;89.40;98290.22;4114136;28;20203;-89
2022/04/03 04:48:29;;;;;;;14.52;10.05;;;;;;;2.74;89.49;98297.88;4101286;28;20213;-90
2022/04/03 04:50:33;;;;;;;15.20;9.70;;;;;;;2.74;89.75;98286.72;4101105;28;20916;-90
2022/04/03 04:52:36;;;;;;;13.35;9.88;;;;;;;2.74;89.56;98294.44;4107038;28;20296;-90
2022/04/03 04:54:39;;;;;;;12.45;9.57;;;;;;;2.76;89.96;98298.66;4107371;28;20276;-90
2022/04/03 04:56:43;;;;;;;12.52;9.85;;;;;;;2.79;90.26;98290.00;4090910;28;20205;-90
2022/04/03 04:58:46;;;;;;;12.77;9.32;;;;;;;2.82;90.21;98298.44;4108627;28;20201;-90
2022/04/03 05:00:52;;;;;;;11.13;9.18;;;;;;;2.82;89.88;98307.00;4087417;28;20894;-90
2022/04/03 05:02:56;;;;;;;10.93;9.10;;;;;;;2.82;89.57;98298.44;4107957;28;20207;-90
2022/04/03 05:04:59;;;;;;;14.05;10.00;;;;;;;2.82;89.63;98299.28;4107492;28;20758;-90
2022/04/03 05:07:03;;;;;;;11.18;9.23;;;;;;;2.80;90.13;98300.25;4118267;28;20707;-90
2022/04/03 05:09:06;;;;;;;14.00;9.15;;;;;;;2.80;90.40;98301.09;4095144;28;20626;-89
2022/04/03 05:11:09;;;;;;;14.77;9.48;;;;;;;2.80;90.36;98313.97;4097808;28;20202;-90
2022/04/03 05:13:14;;;;;;;11.10;9.15;;;;;;;2.81;90.76;98307.94;4109162;28;20272;-90
2022/04/03 05:15:18;;;;;;;12.93;9.23;;;;;;;2.82;90.30;98321.63;4075966;29;20211;-90
2022/04/03 05:17:23;;;;;;;12.43;8.63;;;;;;;2.85;89.93;98316.38;4090208;28;20221;-90
2022/04/03 05:19:27;;;;;;;12.02;8.40;;;;;;;2.87;90.53;98317.16;4089866;28;20342;-90
2022/04/03 05:21:30;;;;;;;10.05;8.27;;;;;;;2.90;90.72;98311.91;4103074;28;20233;-90
2022/04/03 05:23:33;;;;;;;10.80;8.23;;;;;;;2.93;90.09;98316.94;4087692;28;20245;-90
2022/04/03 05:25:38;;;;;;;12.90;8.98;;;;;;;2.95;90.04;98321.16;4103651;28;20255;-89
2022/04/03 05:27:42;;;;;;;10.90;7.55;;;;;;;3.01;90.03;98317.53;4092931;28;20223;-90
2022/04/03 05:29:45;;;;;;;9.63;7.43;;;;;;;3.02;89.45;98321.78;4099974;28;20764;-90
2022/04/03 05:31:50;;;;;;;13.25;9.05;;;;;;;3.08;89.28;98327.56;4107110;28;20213;-90
2022/04/03 05:33:55;;;;;;;10.25;8.02;;;;;;;3.08;89.23;98330.16;4092910;28;20912;-90
2022/04/03 05:35:59;;;;;;;10.43;7.75;;;;;;;3.12;88.97;98325.72;4090503;28;20210;-90
2022/04/03 05:38:02;;;;;;;10.98;8.07;;;;;;;3.18;89.56;98326.31;4102288;28;20268;-90
2022/04/03 05:40:07;;;;;;;9.15;7.65;;;;;;;3.24;88.06;98335.59;4083133;28;20696;-89
2022/04/03 05:42:10;;;;;;;10.82;7.07;;;;;;;3.29;87.42;98335.38;4122904;28;20215;-90
2022/04/03 05:44:14;;;;;;;11.73;8.80;;;;;;;3.38;87.40;98329.03;4090655;28;20241;-90
2022/04/03 05:46:17;;;;;;;9.95;8.05;;;;;;;3.49;87.53;98338.06;4089612;28;20616;-89
2022/04/03 05:48:20;;;;;;;10.73;8.38;;;;;;;3.53;86.48;98331.88;4092639;28;20198;-90
2022/04/03 05:50:26;;;;;;;10.35;7.10;;;;;;;3.57;86.77;98333.44;4107230;28;20228;-90
2022/04/03 05:52:39;;;;;;;11.15;7.10;;;;;;;3.62;86.63;98333.28;4088267;29;20247;-90
2022/04/03 05:54:42;;;;;;;10.68;7.22;;;;;;;3.69;86.19;98339.91;4075168;29;20231;-90
2022/04/03 05:56:46;;;;;;;10.02;7.75;;;;;;;3.72;87.03;98338.03;4093179;28;20209;-90
2022/04/03 05:58:49;;;;;;;10.80;7.50;;;;;;;3.79;86.27;98342.09;4108563;28;20215;-90
2022/04/03 06:00:53;;;;;;;9.20;6.85;;;;;;;3.92;86.85;98343.28;4105740;28;20328;-91
2022/04/03 06:02:57;;;;;;;9.13;7.72;;;;;;;4.02;86.28;98349.78;4095202;28;20476;-90
2022/04/03 06:05:00;;;;;;;10.52;7.00;;;;;;;4.17;84.54;98346.59;4094610;28;20206;-90
2022/04/03 06:07:07;;;;;;;8.30;6.40;;;;;;;4.33;83.95;98351.06;4107787;28;20217;-90
2022/04/03 06:09:10;;;;;;;7.70;6.43;;;;;;;4.43;83.08;98357.56;4092738;28;20238;-90
2022/04/03 06:11:13;;;;;;;9.15;6.57;;;;;;;4.55;81.91;98355.31;4105618;28;20298;-90
2022/04/03 06:13:17;;;;;;;9.13;7.40;;;;;;;4.62;81.63;98350.78;4089365;29;20557;-90
2022/04/03 06:15:20;;;;;;;11.82;8.82;;;;;;;4.76;82.59;98355.28;4089335;28;20265;-90
2022/04/03 06:17:23;;;;;;;9.80;6.40;;;;;;;4.87;81.76;98360.00;4091455;28;20226;-90
2022/04/03 06:19:27;;;;;;;10.02;6.72;;;;;;;5.02;81.38;98355.06;4095217;28;20215;-90
2022/04/03 06:21:30;;;;;;;7.45;6.53;;;;;;;5.14;81.33;98360.53;4126465;28;20207;-90
2022/04/03 06:23:35;;;;;;;6.72;5.38;;;;;;;5.29;80.02;98367.63;4123275;28;20229;-90
2022/04/03 06:25:39;;;;;;;8.20;6.28;;;;;;;5.40;79.77;98368.00;4112262;28;20835;-90
2022/04/03 06:27:42;;;;;;;7.60;6.30;;;;;;;5.50;80.07;98365.84;4091642;28;20207;-90
2022/04/03 06:29:45;;;;;;;7.68;6.35;;;;;;;5.62;79.60;98368.72;4112604;28;20201;-90
2022/04/03 06:31:49;;;;;;;6.57;5.75;;;;;;;5.78;79.12;98378.34;4094862;28;20625;-90
2022/04/03 06:33:52;;;;;;;7.18;5.65;;;;;;;5.99;78.86;98379.97;4109056;28;20234;-89
2022/04/03 06:35:56;;;;;;;8.27;5.50;;;;;;;6.19;78.35;98390.25;4109475;28;20206;-90
2022/04/03 06:38:00;;;;;;;7.90;5.55;;;;;;;6.27;77.32;98386.41;4108931;28;20245;-89
2022/04/03 06:40:07;;;;;;;7.57;5.10;;;;;;;6.25;76.39;98380.44;4103535;28;20237;-89
2022/04/03 06:42:10;;;;;;;7.53;5.00;;;;;;;6.26;75.30;98387.31;4102350;28;20710;-90
2022/04/03 06:44:15;;;;;;;6.65;4.65;;;;;;;6.19;76.26;98385.94;4092268;28;20216;-90
2022/04/03 06:46:19;;;;;;;7.38;5.32;;;;;;;6.08;75.45;98389.09;4095619;28;20733;-89
2022/04/03 06:48:23;;;;;;;9.73;5.47;;;;;;;5.96;75.67;98389.63;4088242;28;20300;-89
2022/04/03 06:50:26;;;;;;;10.20;5.88;;;;;;;5.82;76.46;98392.00;4093471;28;20599;-89
2022/04/03 06:52:29;;;;;;;8.52;6.53;;;;;;;5.73;76.15;98394.97;4102578;28;20751;-88
2022/04/03 06:54:33;;;;;;;7.72;5.15;;;;;;;5.64;76.71;98397.97;4079778;29;20529;-88
2022/04/03 06:56:38;;;;;;;6.82;5.78;;;;;;;5.61;77.10;98392.94;4089520;28;20784;-88
2022/04/03 06:58:41;;;;;;;6.78;5.07;;;;;;;5.66;77.56;98396.16;4105915;28;20880;-88
2022/04/03 07:00:44;;;;;;;5.75;4.95;;;;;;;5.71;76.95;98394.19;4117013;28;20780;-88
2022/04/03 07:02:48;;;;;;;13.65;9.55;;;;;;;5.78;75.84;98408.56;4085139;29;20227;-88
2022/04/03 07:04:52;;;;;;;6.70;5.05;;;;;;;5.78;76.35;98406.81;4096278;28;20211;-87
2022/04/03 07:06:55;;;;;;;7.20;4.90;;;;;;;5.79;74.95;98402.50;4091736;28;20217;-87
2022/04/03 07:08:58;;;;;;;6.85;5.22;;;;;;;5.75;74.50;98406.13;4089019;28;20220;-91
2022/04/03 07:11:03;;;;;;;7.50;4.95;;;;;;;5.78;75.48;98405.97;4082718;28;20214;-88
2022/04/03 07:13:08;;;;;;;6.65;5.40;;;;;;;5.87;76.04;98411.59;4082539;28;20217;-90
2022/04/03 07:15:13;;;;;;;7.07;5.20;;;;;;;6.10;77.83;98406.19;4101952;28;20716;-87
2022/04/03 07:17:17;;;;;;;5.35;4.70;;;;;;;6.41;77.44;98415.06;4098282;28;20225;-88
2022/04/03 07:19:20;;;;;;;7.32;5.13;;;;;;;6.59;74.10;98416.81;4118778;28;20289;-86
2022/04/03 07:21:23;;;;;;;7.57;4.63;;;;;;;6.66;73.63;98420.75;4116906;28;20797;-86
2022/04/03 07:23:27;;;;;;;10.57;8.15;;;;;;;6.57;76.15;98424.66;4107203;28;20239;-86
2022/04/03 07:25:30;;;;;;;6.90;5.38;;;;;;;6.71;75.89;98431.78;4105910;28;20703;-86
2022/04/03 07:27:33;;;;;;;6.28;5.03;;;;;;;7.06;75.44;98421.38;4095734;28;20213;-86
2022/04/03 07:29:38;;;;;;;6.38;4.82;;;;;;;7.37;73.58;98427.56;4093961;28;20243;-87
2022/04/03 07:31:41;;;;;;;7.45;4.57;;;;;;;7.53;71.26;98424.09;4102398;28;20588;-87
2022/04/03 07:33:46;;;;;;;5.50;4.50;;;;;;;7.67;70.98;98432.03;4102180;28;20593;-87
2022/04/03 07:35:50;;;;;;;6.82;4.97;;;;;;;7.89;69.92;98429.13;4095110;28;20298;-87
2022/04/03 07:37:53;;;;;;;8.63;5.07;;;;;;;7.96;68.94;98435.69;4090307;28;20262;-86
2022/04/03 07:39:57;;;;;;;8.23;4.90;;;;;;;8.10;70.59;98434.91;4073579;29;20686;-88
2022/04/03 07:42:02;;;;;;;9.05;5.32;;;;;;;8.12;67.31;98447.84;4090206;28;20301;-87
2022/04/03 07:44:06;;;;;;;12.18;8.65;;;;;;;7.72;65.96;98447.34;4119092;28;20683;-89
2022/04/03 07:46:18;;;;;;;8.20;5.93;;;;;;;7.12;65.02;98452.19;4089002;28;20273;-86
2022/04/03 07:48:21;;;;;;;5.47;3.95;;;;;;;6.86;65.11;98452.59;4122162;28;20208;-92
2022/04/03 07:50:25;;;;;;;4.43;3.70;;;;;;;6.97;65.38;98447.75;4088866;29;20212;-90
2022/04/03 07:52:29;;;;;;;7.18;4.63;;;;;;;7.08;66.80;98454.09;4104096;28;20300;-89
2022/04/03 07:54:32;;;;;;;7.70;4.75;;;;;;;7.06;66.73;98447.28;4091830;28;21131;-91
2022/04/03 07:56:37;;;;;;;9.98;7.82;;;;;;;6.85;65.63;98452.69;4090808;28;20307;-91
2022/04/03 07:58:40;;;;;;;8.40;7.07;;;;;;;7.05;67.90;98451.66;4100369;28;20210;-84
2022/04/03 08:00:44;;;;;;;6.55;4.88;;;;;;;7.14;67.35;98456.38;4089213;28;20618;-87
2022/04/03 08:02:49;;;;;;;16.15;8.80;;;;;;;7.24;67.06;98454.16;4084366;28;20221;-84
2022/04/03 08:04:53;;;;;;;7.40;5.72;;;;;;;7.25;67.75;98456.69;4092508;28;20809;-88
2022/04/03 08:06:57;;;;;;;7.68;5.30;;;;;;;7.37;66.46;98453.50;4106089;28;20274;-86
2022/04/03 08:09:01;;;;;;;6.47;5.25;;;;;;;7.46;67.04;98457.34;4101986;28;20962;-90
2022/04/03 08:11:05;;;;;;;6.28;4.38;;;;;;;7.11;65.80;98456.53;4094349;28;20835;-94
2022/04/03 08:13:08;;;;;;;6.13;4.82;;;;;;;7.43;68.25;98463.56;4106837;28;20213;-86
2022/04/03 08:15:13;;;;;;;6.93;4.50;;;;;;;7.52;64.55;98466.53;4102151;28;20216;-87
2022/04/03 08:17:17;;;;;;;5.25;4.40;;;;;;;7.23;63.36;98462.84;4108237;28;20699;-86
2022/04/03 08:19:21;;;;;;;5.00;3.65;;;;;;;6.72;63.86;98472.31;4091031;28;20842;-88
2022/04/03 08:21:25;;;;;;;4.55;4.05;;;;;;;6.21;65.66;98472.13;4083461;29;20210;-85
2022/04/03 08:23:28;;;;;;;5.43;3.78;;;;;;;6.23;65.86;98470.31;4118533;28;20215;-86
2022/04/03 08:25:32;;;;;;;4.88;3.70;;;;;;;6.20;66.60;98467.84;4107610;28;20524;-85
2022/04/03 08:27:43;;;;;;;4.75;3.60;;;;;;;6.23;65.90;98478.06;4108207;28;20695;-88
2022/04/03 08:29:47;;;;;;;6.78;4.30;;;;;;;6.16;66.03;98476.69;4106138;28;20233;-87
2022/04/03 08:31:50;;;;;;;6.40;4.15;;;;;;;6.17;66.01;98473.16;4119260;28;20225;-90
2022/04/03 08:33:54;;;;;;;4.80;3.50;;;;;;;6.04;66.79;98478.94;4090782;28;20228;-86
2022/04/03 08:35:59;;;;;;;6.18;4.07;;;;;;;6.06;67.12;98471.97;4088515;28;20220;-87
2022/04/03 08:38:03;;;;;;;6.18;3.35;;;;;;;6.02;64.15;98477.38;4090500;28;20631;-87
2022/04/03 08:40:08;;;;;;;3.85;3.45;;;;;;;5.73;66.13;98480.34;4092757;28;20228;-85
2022/04/03 08:42:12;;;;;;;4.95;3.40;;;;;;;5.45;66.61;98476.41;4118456;28;20214;-83
2022/04/03 08:44:15;;;;;;;6.45;4.63;;;;;;;5.41;66.91;98480.88;4091188;29;20674;-84
2022/04/03 08:46:18;;;;;;;5.57;3.63;;;;;;;5.21;67.33;98478.25;4073283;28;20239;-84
2022/04/03 08:48:24;;;;;;;5.70;3.80;;;;;;;5.04;67.49;98481.63;4088417;28;20574;-84
2022/04/03 08:50:28;;;;;;;4.28;3.70;;;;;;;5.04;67.86;98484.19;4087891;28;20242;-84
2022/04/03 08:52:35;;;;;;;5.28;3.40;;;;;;;4.83;68.45;98483.28;4091132;28;20356;-86
2022/04/03 08:54:38;;;;;;;6.75;4.22;;;;;;;4.76;69.79;98483.59;4089436;28;20234;-88
2022/04/03 08:56:42;;;;;;;5.60;3.75;;;;;;;4.71;69.26;98483.78;4089762;28;20209;-85
2022/04/03 08:58:46;;;;;;;6.20;3.80;;;;;;;4.60;68.30;98484.25;4118717;28;20206;-85
2022/04/03 09:00:50;;;;;;;5.43;3.75;;;;;;;4.68;68.58;98490.81;4091789;29;20701;-84
2022/04/03 09:02:53;;;;;;;4.97;3.70;;;;;;;4.67;68.98;98486.53;4102397;28;20228;-86
2022/04/03 09:04:56;;;;;;;5.30;3.95;;;;;;;4.65;69.30;98487.50;4093104;29;20217;-85
2022/04/03 09:07:01;;;;;;;5.15;3.85;;;;;;;4.64;67.75;98491.00;4092351;28;20297;-89
2022/04/03 09:09:06;;;;;;;5.28;4.07;;;;;;;4.46;69.38;98487.34;4107163;28;20232;-85
2022/04/03 09:11:09;;;;;;;4.72;3.90;;;;;;;4.46;68.30;98487.34;4092155;28;20241;-84
2022/04/03 09:13:24;;;;;;;4.15;3.60;;;;;;;4.48;68.98;98485.56;4085592;28;20217;-86
2022/04/03 09:15:29;;;;;;;5.35;3.33;;;;;;;4.72;68.39;98493.22;4114433;28;20201;-84
2022/04/03 09:17:34;;;;;;;7.97;3.80;;;;;;;4.84;69.23;98494.47;4091778;28;20233;-83
2022/04/03 09:19:38;;;;;;;5.43;3.83;;;;;;;4.73;68.28;98504.38;4085384;29;20214;-86
2022/04/03 09:21:42;;;;;;;7.47;3.53;;;;;;;4.63;68.81;98490.16;4101909;28;20260;-83
2022/04/03 09:24:02;;;;;;;4.80;3.40;;;;;;;4.81;69.11;98505.78;4084589;28;20217;-84
2022/04/03 09:26:18;;;;;;;6.15;3.95;;;;;;;4.71;68.58;98493.28;4115345;28;20212;-86
2022/04/03 09:28:21;;;;;;;4.57;3.50;;;;;;;4.66;67.76;98495.22;4119769;28;20260;-86
2022/04/03 09:30:30;;;;;;;4.47;3.60;;;;;;;4.38;67.67;98496.31;4089520;28;20232;-86
2022/04/03 09:32:34;;;;;;;3.47;3.13;;;;;;;4.20;68.04;98502.97;4102626;28;20732;-89
2022/04/03 09:34:38;;;;;;;5.80;3.90;;;;;;;4.34;68.10;98503.31;4086459;29;20242;-87
2022/04/03 09:36:41;;;;;;;5.28;4.07;;;;;;;4.45;68.81;98506.34;4094721;29;20206;-87
2022/04/03 09:38:48;;;;;;;5.10;4.15;;;;;;;4.61;67.33;98504.84;4097654;28;20303;-84
2022/04/03 09:40:53;;;;;;;4.68;3.60;;;;;;;4.72;68.35;98505.28;4086894;28;20683;-85
2022/04/03 09:43:12;;;;;;;5.82;4.90;;;;;;;5.37;69.84;98506.94;4090162;28;20209;-84
2022/04/03 09:45:25;;;;;;;6.50;4.20;;;;;;;5.59;66.98;98505.94;4088463;28;20213;-83
2022/04/03 09:47:30;;;;;;;5.55;4.28;;;;;;;5.56;66.20;98507.81;4086984;28;20207;-85